THY1140 HLLM-LTFM
Flight info
| Callsign | THY1140 |
|---|---|
| Flight time | N/A |
| Altitude | 35000 |
| Route | LUMED2D LUMED DCT DOMNA DCT AGARI DCT VESOD/N0451F360 DCT ERNAM DCT INROF DCT AMREX DCT DINOB/N0448F350 UM600 TSL UM603 PEREN UN644 DIGTI T162 DRAMO |
| Aircraft | A321/M-SDE3FGHIRWY/LB1 |
Departure
| Time | 2026-04-27 09:13 |
|---|---|
| Airport | Mitiga International Airport (HLLM) |
Arrival
| Time | N/A |
|---|---|
| Airport | İstanbul Airport (LTFM) |
| Time | Latitude | Longitude | Altitude | Speed | Heading |
|---|---|---|---|---|---|
| 2026-04-27 08:31 | 32.90406 | 13.27701 | 26 ft | 0 kts | 279° |
| 2026-04-27 09:07 | 32.90406 | 13.27699 | 22 ft | 1 kts | 279° |
| 2026-04-27 09:08 | 32.90408 | 13.27668 | 22 ft | 6 kts | 268° |
| 2026-04-27 09:08 | 32.90375 | 13.27625 | 22 ft | 9 kts | 195° |
| 2026-04-27 09:08 | 32.90303 | 13.27632 | 22 ft | 11 kts | 173° |
| 2026-04-27 09:08 | 32.90220 | 13.27644 | 22 ft | 13 kts | 173° |
| 2026-04-27 09:09 | 32.90125 | 13.27658 | 22 ft | 15 kts | 173° |
| 2026-04-27 09:09 | 32.90019 | 13.27671 | 22 ft | 16 kts | 178° |
| 2026-04-27 09:09 | 32.89908 | 13.27634 | 22 ft | 18 kts | 204° |
| 2026-04-27 09:09 | 32.89807 | 13.27581 | 22 ft | 13 kts | 201° |
| 2026-04-27 09:10 | 32.89728 | 13.27616 | 22 ft | 13 kts | 141° |
| 2026-04-27 09:10 | 32.89642 | 13.27649 | 22 ft | 13 kts | 198° |
| 2026-04-27 09:10 | 32.89602 | 13.27618 | 23 ft | 5 kts | 230° |
| 2026-04-27 09:10 | 32.89605 | 13.27571 | 24 ft | 8 kts | 285° |
| 2026-04-27 09:11 | 32.89622 | 13.27495 | 23 ft | 11 kts | 285° |
| 2026-04-27 09:11 | 32.89647 | 13.27388 | 25 ft | 15 kts | 285° |
| 2026-04-27 09:11 | 32.89678 | 13.27254 | 23 ft | 18 kts | 285° |
| 2026-04-27 09:11 | 32.89700 | 13.27134 | 23 ft | 12 kts | 257° |
| 2026-04-27 09:12 | 32.89635 | 13.27099 | 23 ft | 12 kts | 197° |
| 2026-04-27 09:12 | 32.89557 | 13.27125 | 23 ft | 14 kts | 116° |
| 2026-04-27 09:12 | 32.89527 | 13.27254 | 25 ft | 30 kts | 105° |
| 2026-04-27 09:12 | 32.89409 | 13.27772 | 22 ft | 99 kts | 105° |
| 2026-04-27 09:13 | 32.89171 | 13.28795 | 24 ft | 154 kts | 105° |
| 2026-04-27 09:13 | 32.88857 | 13.30058 | 542 ft | 159 kts | 104° |
| 2026-04-27 09:13 | 32.88524 | 13.31351 | 1101 ft | 168 kts | 106° |
| 2026-04-27 09:13 | 32.88159 | 13.32743 | 1454 ft | 185 kts | 107° |
| 2026-04-27 09:14 | 32.87883 | 13.34322 | 1638 ft | 207 kts | 88° |
| 2026-04-27 09:14 | 32.88512 | 13.35905 | 1863 ft | 229 kts | 46° |
| 2026-04-27 09:14 | 32.90016 | 13.36692 | 2264 ft | 247 kts | 10° |
| 2026-04-27 09:14 | 32.91751 | 13.36690 | 2849 ft | 251 kts | 356° |
| 2026-04-27 09:15 | 32.93553 | 13.36471 | 3284 ft | 270 kts | 354° |
| 2026-04-27 09:15 | 32.95448 | 13.36254 | 3931 ft | 276 kts | 356° |
| 2026-04-27 09:15 | 32.97373 | 13.36119 | 4763 ft | 276 kts | 357° |
| 2026-04-27 09:15 | 32.99265 | 13.36070 | 5581 ft | 276 kts | 358° |
| 2026-04-27 09:16 | 33.01178 | 13.36340 | 6343 ft | 281 kts | 16° |
| 2026-04-27 09:16 | 33.02889 | 13.37481 | 7074 ft | 287 kts | 37° |
| 2026-04-27 09:16 | 33.04431 | 13.38997 | 7820 ft | 288 kts | 38° |
| 2026-04-27 09:16 | 33.05973 | 13.40535 | 8537 ft | 290 kts | 38° |
| 2026-04-27 09:17 | 33.07527 | 13.42091 | 9246 ft | 293 kts | 37° |
| 2026-04-27 09:17 | 33.09091 | 13.43658 | 9933 ft | 295 kts | 37° |
| 2026-04-27 09:17 | 33.10687 | 13.45251 | 10338 ft | 307 kts | 37° |
| 2026-04-27 09:17 | 33.12384 | 13.46940 | 10464 ft | 328 kts | 37° |
| 2026-04-27 09:18 | 33.14191 | 13.48741 | 10589 ft | 348 kts | 37° |
| 2026-04-27 09:18 | 33.16069 | 13.50620 | 10990 ft | 355 kts | 37° |
| 2026-04-27 09:18 | 33.17973 | 13.52529 | 11551 ft | 358 kts | 38° |
| 2026-04-27 09:18 | 33.19888 | 13.54455 | 12126 ft | 361 kts | 37° |
| 2026-04-27 09:19 | 33.21818 | 13.56396 | 12708 ft | 364 kts | 37° |
| 2026-04-27 09:19 | 33.23761 | 13.58346 | 13266 ft | 366 kts | 38° |
| 2026-04-27 09:19 | 33.25720 | 13.60308 | 13846 ft | 369 kts | 37° |
| 2026-04-27 09:19 | 33.27696 | 13.62289 | 14349 ft | 372 kts | 37° |
| 2026-04-27 09:20 | 33.29685 | 13.64286 | 14816 ft | 376 kts | 37° |
| 2026-04-27 09:20 | 33.31697 | 13.66302 | 15261 ft | 379 kts | 37° |
| 2026-04-27 09:20 | 33.33705 | 13.68316 | 15734 ft | 383 kts | 37° |
| 2026-04-27 09:20 | 33.35755 | 13.70377 | 16200 ft | 387 kts | 37° |
| 2026-04-27 09:21 | 33.37821 | 13.72458 | 16657 ft | 390 kts | 37° |
| 2026-04-27 09:21 | 33.39907 | 13.74560 | 17122 ft | 394 kts | 37° |
| 2026-04-27 09:21 | 33.42016 | 13.76686 | 17590 ft | 398 kts | 38° |
| 2026-04-27 09:21 | 33.44140 | 13.78827 | 18052 ft | 401 kts | 37° |
| 2026-04-27 09:22 | 33.46283 | 13.80989 | 18470 ft | 405 kts | 37° |
| 2026-04-27 09:22 | 33.48447 | 13.83176 | 18848 ft | 408 kts | 37° |
| 2026-04-27 09:22 | 33.50622 | 13.85374 | 19233 ft | 410 kts | 37° |
| 2026-04-27 09:22 | 33.52809 | 13.87586 | 19623 ft | 413 kts | 37° |
| 2026-04-27 09:23 | 33.55015 | 13.89815 | 20016 ft | 415 kts | 37° |
| 2026-04-27 09:23 | 33.57230 | 13.92053 | 20404 ft | 418 kts | 37° |
| 2026-04-27 09:23 | 33.59458 | 13.94306 | 20781 ft | 420 kts | 37° |
| 2026-04-27 09:23 | 33.61701 | 13.96579 | 21159 ft | 423 kts | 38° |
| 2026-04-27 09:24 | 33.63956 | 13.98868 | 21523 ft | 425 kts | 38° |
| 2026-04-27 09:24 | 33.66218 | 14.01170 | 21900 ft | 428 kts | 37° |
| 2026-04-27 09:24 | 33.68497 | 14.03490 | 22301 ft | 430 kts | 37° |
| 2026-04-27 09:24 | 33.70779 | 14.05815 | 22676 ft | 432 kts | 37° |
| 2026-04-27 09:25 | 33.73080 | 14.08160 | 23048 ft | 434 kts | 37° |
| 2026-04-27 09:25 | 33.75392 | 14.10510 | 23417 ft | 437 kts | 37° |
| 2026-04-27 09:25 | 33.77718 | 14.12871 | 23766 ft | 439 kts | 37° |
| 2026-04-27 09:25 | 33.80055 | 14.15246 | 24065 ft | 441 kts | 37° |
| 2026-04-27 09:26 | 33.82404 | 14.17641 | 24385 ft | 443 kts | 37° |
| 2026-04-27 09:26 | 33.84756 | 14.20045 | 24700 ft | 445 kts | 37° |
| 2026-04-27 09:26 | 33.87119 | 14.22462 | 25005 ft | 447 kts | 37° |
| 2026-04-27 09:26 | 33.89499 | 14.24897 | 25255 ft | 451 kts | 37° |
| 2026-04-27 09:27 | 33.91894 | 14.27349 | 25568 ft | 452 kts | 37° |
| 2026-04-27 09:27 | 33.94257 | 14.29772 | 25883 ft | 453 kts | 37° |
| 2026-04-27 09:27 | 33.96659 | 14.32241 | 26186 ft | 455 kts | 38° |
| 2026-04-27 09:27 | 33.99070 | 14.34721 | 26482 ft | 457 kts | 37° |
| 2026-04-27 09:28 | 34.01501 | 14.37216 | 26774 ft | 459 kts | 37° |
| 2026-04-27 09:28 | 34.03933 | 14.39714 | 27069 ft | 460 kts | 37° |
| 2026-04-27 09:28 | 34.06374 | 14.42223 | 27357 ft | 462 kts | 37° |
| 2026-04-27 09:28 | 34.08827 | 14.44740 | 27641 ft | 464 kts | 37° |
| 2026-04-27 09:29 | 34.11293 | 14.47273 | 27920 ft | 466 kts | 37° |
| 2026-04-27 09:29 | 34.13766 | 14.49821 | 28210 ft | 468 kts | 37° |
| 2026-04-27 09:29 | 34.16241 | 14.52375 | 28490 ft | 469 kts | 37° |
| 2026-04-27 09:29 | 34.17918 | 14.54108 | 28664 ft | 470 kts | 37° |
| 2026-04-27 09:30 | 34.20411 | 14.56682 | 28922 ft | 472 kts | 37° |
| 2026-04-27 09:30 | 34.22902 | 14.59258 | 29255 ft | 471 kts | 37° |
| 2026-04-27 09:30 | 34.25355 | 14.61804 | 29617 ft | 470 kts | 37° |
| 2026-04-27 09:30 | 34.27833 | 14.64377 | 29956 ft | 469 kts | 37° |
| 2026-04-27 09:31 | 34.30312 | 14.66948 | 30304 ft | 468 kts | 37° |
| 2026-04-27 09:31 | 34.32891 | 14.69324 | 30579 ft | 464 kts | 29° |
| 2026-04-27 09:31 | 34.35695 | 14.71224 | 30858 ft | 459 kts | 20° |
| 2026-04-27 09:31 | 34.38632 | 14.72709 | 31120 ft | 457 kts | 18° |
| 2026-04-27 09:32 | 34.41590 | 14.74161 | 31387 ft | 457 kts | 18° |
| 2026-04-27 09:32 | 34.44538 | 14.75617 | 31658 ft | 457 kts | 18° |
| 2026-04-27 09:32 | 34.47476 | 14.77080 | 31928 ft | 457 kts | 18° |
| 2026-04-27 09:32 | 34.50411 | 14.78551 | 32195 ft | 456 kts | 18° |
| 2026-04-27 09:33 | 34.53349 | 14.80022 | 32460 ft | 456 kts | 18° |
| 2026-04-27 09:33 | 34.56277 | 14.81481 | 32724 ft | 456 kts | 18° |
| 2026-04-27 09:33 | 34.59175 | 14.82922 | 33000 ft | 456 kts | 18° |
| 2026-04-27 09:33 | 34.62106 | 14.84383 | 33260 ft | 455 kts | 18° |
| 2026-04-27 09:34 | 34.65034 | 14.85846 | 33525 ft | 455 kts | 18° |
| 2026-04-27 09:34 | 34.67960 | 14.87308 | 33769 ft | 455 kts | 18° |
| 2026-04-27 09:34 | 34.70891 | 14.88769 | 34033 ft | 455 kts | 18° |
| 2026-04-27 09:34 | 34.73819 | 14.90232 | 34276 ft | 454 kts | 18° |
| 2026-04-27 09:35 | 34.76739 | 14.91699 | 34489 ft | 454 kts | 18° |
| 2026-04-27 09:35 | 34.79637 | 14.93236 | 34704 ft | 455 kts | 20° |
| 2026-04-27 09:35 | 34.82510 | 14.94862 | 34956 ft | 455 kts | 21° |
| 2026-04-27 09:35 | 34.85360 | 14.96537 | 35127 ft | 456 kts | 21° |
| 2026-04-27 09:36 | 34.88211 | 14.98238 | 35185 ft | 456 kts | 21° |
| 2026-04-27 09:36 | 34.93910 | 15.01614 | 35187 ft | 455 kts | 21° |
| 2026-04-27 09:37 | 34.99632 | 15.04928 | 35188 ft | 455 kts | 20° |
| 2026-04-27 09:37 | 35.05360 | 15.08220 | 35194 ft | 455 kts | 20° |
| 2026-04-27 09:38 | 35.11081 | 15.11522 | 35191 ft | 455 kts | 21° |
| 2026-04-27 09:38 | 35.16802 | 15.14849 | 35194 ft | 455 kts | 21° |
| 2026-04-27 09:39 | 35.22527 | 15.18183 | 35198 ft | 456 kts | 21° |
| 2026-04-27 09:39 | 35.28229 | 15.21507 | 35192 ft | 458 kts | 21° |
| 2026-04-27 09:40 | 35.34006 | 15.24874 | 35179 ft | 461 kts | 21° |
| 2026-04-27 09:40 | 35.39812 | 15.28262 | 35177 ft | 462 kts | 21° |
| 2026-04-27 09:41 | 35.45627 | 15.31668 | 35180 ft | 463 kts | 21° |
| 2026-04-27 09:41 | 35.51450 | 15.35080 | 35203 ft | 464 kts | 21° |
| 2026-04-27 09:42 | 35.57271 | 15.38494 | 35211 ft | 464 kts | 21° |
| 2026-04-27 09:42 | 35.63091 | 15.41915 | 35212 ft | 464 kts | 21° |
| 2026-04-27 09:43 | 35.68912 | 15.45348 | 35211 ft | 464 kts | 21° |
| 2026-04-27 09:43 | 35.74726 | 15.48784 | 35225 ft | 464 kts | 21° |
| 2026-04-27 09:44 | 35.80547 | 15.52228 | 35220 ft | 464 kts | 21° |
| 2026-04-27 09:44 | 35.86365 | 15.55673 | 35215 ft | 464 kts | 21° |
| 2026-04-27 09:45 | 35.92192 | 15.59120 | 35212 ft | 464 kts | 21° |
| 2026-04-27 09:45 | 35.97982 | 15.62549 | 35223 ft | 464 kts | 21° |
| 2026-04-27 09:46 | 36.03834 | 15.65940 | 35222 ft | 464 kts | 20° |
| 2026-04-27 09:46 | 36.09698 | 15.69299 | 35217 ft | 464 kts | 20° |
| 2026-04-27 09:47 | 36.15562 | 15.72670 | 35214 ft | 464 kts | 20° |
| 2026-04-27 09:47 | 36.21426 | 15.76067 | 35223 ft | 465 kts | 20° |
| 2026-04-27 09:48 | 36.27283 | 15.79461 | 35217 ft | 465 kts | 20° |
| 2026-04-27 09:48 | 36.33113 | 15.82843 | 35213 ft | 465 kts | 20° |
| 2026-04-27 09:49 | 36.38973 | 15.86258 | 35214 ft | 465 kts | 20° |
| 2026-04-27 09:49 | 36.44841 | 15.89677 | 35223 ft | 466 kts | 20° |
| 2026-04-27 09:50 | 36.50648 | 15.93273 | 35214 ft | 471 kts | 31° |
| 2026-04-27 09:50 | 36.53143 | 15.95964 | 35214 ft | 478 kts | 43° |
| 2026-04-27 09:50 | 36.55432 | 15.98973 | 35210 ft | 479 kts | 43° |
| 2026-04-27 09:51 | 36.59983 | 16.05022 | 35208 ft | 479 kts | 43° |
| 2026-04-27 09:51 | 36.64531 | 16.11099 | 35211 ft | 480 kts | 43° |
| 2026-04-27 09:52 | 36.69087 | 16.17172 | 35209 ft | 480 kts | 43° |
| 2026-04-27 09:52 | 36.73657 | 16.23252 | 35205 ft | 480 kts | 43° |
| 2026-04-27 09:53 | 36.78200 | 16.29303 | 35212 ft | 481 kts | 43° |
| 2026-04-27 09:53 | 36.82755 | 16.35404 | 35220 ft | 481 kts | 43° |
| 2026-04-27 09:54 | 36.87320 | 16.41519 | 35205 ft | 480 kts | 43° |
| 2026-04-27 09:54 | 36.91872 | 16.47635 | 35205 ft | 480 kts | 43° |
| 2026-04-27 09:55 | 36.96421 | 16.53758 | 35205 ft | 480 kts | 43° |
| 2026-04-27 09:55 | 37.03228 | 16.62945 | 35210 ft | 480 kts | 43° |
| 2026-04-27 09:56 | 37.07769 | 16.69084 | 35204 ft | 480 kts | 43° |
| 2026-04-27 09:56 | 37.12310 | 16.75228 | 35202 ft | 480 kts | 43° |
| 2026-04-27 09:57 | 37.16820 | 16.81346 | 35196 ft | 480 kts | 43° |
| 2026-04-27 09:57 | 37.21352 | 16.87516 | 35197 ft | 481 kts | 43° |
| 2026-04-27 09:58 | 37.25885 | 16.93695 | 35196 ft | 480 kts | 43° |
| 2026-04-27 09:58 | 37.30414 | 16.99865 | 35195 ft | 480 kts | 43° |
| 2026-04-27 09:59 | 37.34933 | 17.06038 | 35191 ft | 480 kts | 43° |
| 2026-04-27 09:59 | 37.39445 | 17.12228 | 35204 ft | 480 kts | 43° |
| 2026-04-27 10:00 | 37.43923 | 17.18390 | 35205 ft | 480 kts | 43° |
| 2026-04-27 10:00 | 37.48426 | 17.24587 | 35201 ft | 479 kts | 43° |
| 2026-04-27 10:01 | 37.52928 | 17.30786 | 35195 ft | 479 kts | 43° |
| 2026-04-27 10:01 | 37.57427 | 17.36982 | 35186 ft | 479 kts | 43° |
| 2026-04-27 10:02 | 37.61922 | 17.43199 | 35197 ft | 479 kts | 44° |
| 2026-04-27 10:02 | 37.66409 | 17.49422 | 35193 ft | 478 kts | 44° |
| 2026-04-27 10:03 | 37.70847 | 17.55595 | 35191 ft | 478 kts | 44° |
| 2026-04-27 10:03 | 37.75318 | 17.61810 | 35194 ft | 478 kts | 44° |
| 2026-04-27 10:04 | 37.79777 | 17.68025 | 35205 ft | 477 kts | 44° |
| 2026-04-27 10:04 | 37.84224 | 17.74239 | 35200 ft | 475 kts | 44° |
| 2026-04-27 10:05 | 37.88657 | 17.80433 | 35191 ft | 474 kts | 44° |
| 2026-04-27 10:05 | 37.93087 | 17.86629 | 35195 ft | 474 kts | 44° |
| 2026-04-27 10:06 | 37.97498 | 17.92847 | 35204 ft | 473 kts | 45° |
| 2026-04-27 10:06 | 38.01893 | 17.99039 | 35198 ft | 472 kts | 45° |
| 2026-04-27 10:07 | 38.06256 | 18.05187 | 35184 ft | 470 kts | 45° |
| 2026-04-27 10:07 | 38.10631 | 18.11361 | 35185 ft | 470 kts | 45° |
| 2026-04-27 10:08 | 38.14989 | 18.17531 | 35211 ft | 469 kts | 45° |
| 2026-04-27 10:08 | 38.19334 | 18.23702 | 35193 ft | 468 kts | 45° |